createdAt,value
2023-02-16T00:00:51.821Z,45.85
2023-02-16T00:05:55.594Z,45.90
2023-02-16T00:11:17.034Z,45.88
2023-02-16T00:16:24.080Z,44.95
2023-02-16T00:21:27.824Z,46.28
2023-02-16T00:26:34.573Z,44.47
2023-02-16T00:31:39.842Z,45.22
2023-02-16T00:36:43.656Z,44.05
2023-02-16T00:41:53.996Z,44.80
2023-02-16T00:47:02.260Z,46.42
2023-02-16T00:52:25.785Z,43.00
2023-02-16T00:57:35.093Z,45.22
2023-02-16T01:02:40.470Z,45.60
2023-02-16T01:08:01.924Z,45.42
2023-02-16T01:13:06.290Z,44.33
2023-02-16T01:18:14.969Z,45.63
2023-02-16T01:23:19.849Z,44.97
2023-02-16T01:28:25.952Z,44.78
2023-02-16T01:33:31.096Z,45.08
2023-02-16T01:38:36.048Z,46.75
2023-02-16T01:43:47.678Z,45.35
2023-02-16T01:48:54.925Z,45.60
2023-02-16T01:54:07.489Z,46.05
2023-02-16T01:59:22.471Z,45.53
2023-02-16T02:04:55.634Z,46.13
2023-02-16T02:10:04.218Z,45.90
2023-02-16T02:15:09.231Z,48.17
2023-02-16T02:20:22.539Z,48.63
2023-02-16T02:25:48.345Z,46.63
2023-02-16T02:31:03.348Z,46.53
2023-02-16T02:36:19.962Z,47.75
2023-02-16T02:41:47.288Z,48.22
2023-02-16T02:46:53.555Z,48.35
2023-02-16T02:51:58.421Z,45.95
2023-02-16T02:57:25.227Z,45.78
2023-02-16T03:02:33.928Z,48.03
2023-02-16T03:07:48.581Z,47.17
2023-02-16T03:12:52.670Z,48.78
2023-02-16T03:18:18.266Z,48.25
2023-02-16T03:23:39.755Z,48.05
2023-02-16T03:29:03.258Z,47.92
2023-02-16T03:34:09.338Z,48.70
2023-02-16T03:39:13.539Z,48.87
2023-02-16T03:44:17.348Z,47.38
2023-02-16T03:49:22.485Z,48.38
2023-02-16T03:54:26.280Z,48.10
2023-02-16T03:59:30.167Z,48.83
2023-02-16T04:04:35.329Z,48.50
2023-02-16T04:09:39.307Z,48.70
2023-02-16T04:14:43.830Z,49.83
2023-02-16T04:19:49.031Z,48.03
2023-02-16T04:24:52.854Z,47.55
2023-02-16T04:29:56.740Z,46.55
2023-02-16T04:35:02.053Z,48.85
2023-02-16T04:40:07.987Z,50.00
2023-02-16T04:45:12.709Z,49.72
2023-02-16T04:50:18.001Z,49.35
2023-02-16T04:55:21.788Z,48.33
2023-02-16T05:00:25.950Z,49.05
2023-02-16T05:05:31.660Z,50.97
2023-02-16T05:10:35.393Z,48.53
2023-02-16T05:15:39.277Z,49.05
2023-02-16T05:21:04.250Z,47.58
2023-02-16T05:26:08.160Z,50.47
2023-02-16T05:31:12.053Z,48.87
2023-02-16T05:36:17.429Z,49.10
2023-02-16T05:41:30.051Z,48.55
2023-02-16T05:46:36.572Z,47.83
2023-02-16T05:51:41.932Z,47.42
2023-02-16T05:56:46.468Z,47.88
2023-02-16T06:01:52.247Z,49.95
2023-02-16T06:06:59.988Z,47.83
2023-02-16T06:12:03.758Z,47.58
2023-02-16T06:17:07.507Z,49.42
2023-02-16T06:22:12.640Z,46.78
2023-02-16T06:27:16.360Z,46.35
2023-02-16T06:32:20.217Z,47.33
2023-02-16T06:37:25.530Z,45.35
2023-02-16T06:42:29.235Z,47.03
2023-02-16T06:47:32.940Z,46.33
2023-02-16T06:52:38.425Z,44.75
2023-02-16T06:57:42.194Z,45.20
2023-02-16T07:02:46.709Z,44.65
2023-02-16T07:07:52.075Z,46.42
2023-02-16T07:12:55.767Z,44.03
2023-02-16T07:17:59.472Z,44.72
2023-02-16T07:23:04.599Z,44.17
2023-02-16T07:28:08.361Z,44.38
2023-02-16T07:33:12.253Z,43.33
2023-02-16T07:38:17.685Z,43.53
2023-02-16T07:43:21.421Z,46.05
2023-02-16T07:48:25.205Z,45.20
2023-02-16T07:53:30.424Z,43.20
2023-02-16T07:58:34.106Z,41.80
2023-02-16T08:03:38.223Z,42.62
2023-02-16T08:08:44.623Z,41.65
2023-02-16T08:13:49.027Z,42.08
2023-02-16T08:18:53.740Z,43.50
2023-02-16T08:24:01.074Z,44.53
2023-02-16T08:29:06.695Z,43.08
2023-02-16T08:34:11.083Z,43.05
2023-02-16T08:39:17.998Z,41.97
2023-02-16T08:44:23.867Z,42.40
2023-02-16T08:49:28.336Z,41.28
2023-02-16T08:54:33.498Z,42.83
2023-02-16T08:59:37.298Z,42.78
2023-02-16T09:04:41.326Z,42.92
2023-02-16T09:09:46.540Z,41.45
2023-02-16T09:14:50.292Z,41.47
2023-02-16T09:19:54.018Z,44.33
2023-02-16T09:24:59.203Z,44.00
2023-02-16T09:30:03.003Z,44.50
2023-02-16T09:35:07.690Z,44.00
2023-02-16T09:40:14.700Z,44.35
2023-02-16T09:45:21.936Z,44.78
2023-02-16T09:50:52.204Z,46.15
2023-02-16T09:55:59.668Z,47.00
2023-02-16T10:01:13.195Z,46.75
2023-02-16T10:06:34.963Z,43.72
2023-02-16T10:11:49.087Z,43.90
2023-02-16T10:16:58.241Z,45.45
2023-02-16T10:22:06.848Z,44.60
2023-02-16T10:27:16.881Z,45.28
2023-02-16T10:32:29.284Z,45.50
2023-02-16T10:37:45.810Z,46.15
2023-02-16T10:42:56.446Z,47.15
2023-02-16T10:48:01.246Z,49.58
2023-02-16T10:53:10.649Z,50.30
2023-02-16T10:58:22.448Z,48.05
2023-02-16T11:03:31.794Z,48.80
2023-02-16T11:08:49.064Z,46.22
2023-02-16T11:14:01.304Z,49.38
2023-02-16T11:19:08.800Z,45.33
2023-02-16T11:24:24.254Z,45.60
2023-02-16T11:29:29.737Z,45.25
2023-02-16T11:34:35.749Z,45.00
2023-02-16T11:39:42.370Z,43.50
2023-02-16T11:44:53.820Z,43.38
2023-02-16T11:50:20.357Z,44.97
2023-02-16T11:55:28.322Z,40.88
2023-02-16T12:00:34.614Z,42.53
2023-02-16T12:05:51.864Z,40.55
2023-02-16T12:11:08.462Z,39.35
2023-02-16T12:16:26.694Z,37.90
2023-02-16T12:21:36.497Z,36.05
2023-02-16T12:26:46.709Z,31.67
2023-02-16T12:32:14.377Z,30.15
2023-02-16T12:37:25.841Z,26.45
2023-02-16T12:42:45.217Z,25.58
2023-02-16T12:47:56.517Z,24.20
2023-02-16T12:53:09.320Z,22.75
2023-02-16T12:58:20.902Z,21.52
2023-02-16T13:03:35.572Z,21.62
2023-02-16T13:08:45.386Z,19.33
2023-02-16T13:13:52.296Z,20.85
2023-02-16T13:18:57.563Z,20.90
2023-02-16T13:24:09.593Z,20.83
2023-02-16T13:29:45.174Z,20.40
2023-02-16T13:35:25.480Z,20.10
2023-02-16T13:40:45.952Z,20.37
2023-02-16T13:45:54.129Z,21.83
2023-02-16T13:56:22.039Z,21.27
2023-02-16T14:01:43.985Z,20.88
2023-02-16T14:06:47.758Z,19.67
2023-02-16T14:12:15.399Z,20.27
2023-02-16T14:17:27.041Z,19.62
2023-02-16T14:22:35.791Z,20.42
2023-02-16T14:27:51.468Z,19.50
2023-02-16T14:33:00.366Z,19.50
2023-02-16T14:38:06.938Z,19.85
2023-02-16T14:43:25.029Z,18.80
2023-02-16T14:49:17.240Z,18.10
2023-02-16T14:54:52.448Z,18.67
2023-02-16T15:00:02.793Z,18.92
2023-02-16T15:05:17.782Z,18.00
2023-02-16T15:10:27.146Z,18.58
2023-02-16T15:15:44.938Z,19.37
2023-02-16T15:20:53.027Z,20.65
2023-02-16T15:25:59.706Z,18.12
2023-02-16T15:31:07.745Z,19.05
2023-02-16T15:36:14.160Z,18.40
2023-02-16T15:41:27.823Z,18.27
2023-02-16T15:46:36.026Z,19.65
2023-02-16T15:51:40.949Z,21.12
2023-02-16T15:56:47.165Z,21.25
2023-02-16T16:01:58.956Z,22.92
2023-02-16T16:07:04.707Z,22.83
2023-02-16T16:12:11.971Z,25.00
2023-02-16T16:17:20.736Z,24.42
2023-02-16T16:22:34.462Z,25.17
2023-02-16T16:27:38.374Z,28.30
2023-02-16T16:32:43.771Z,27.50
2023-02-16T16:37:52.412Z,27.85
2023-02-16T16:43:18.809Z,27.15
2023-02-16T16:48:29.580Z,28.05
2023-02-16T16:53:41.688Z,27.05
2023-02-16T16:58:49.494Z,27.83
2023-02-16T17:03:54.800Z,27.67
2023-02-16T17:08:58.612Z,28.45
2023-02-16T17:14:08.545Z,28.58
2023-02-16T17:19:15.757Z,26.92
2023-02-16T17:24:22.637Z,28.50
2023-02-16T17:29:26.456Z,28.42
2023-02-16T17:34:31.721Z,25.27
2023-02-16T17:39:35.999Z,24.15
2023-02-16T17:44:39.896Z,26.92
2023-02-16T17:49:45.446Z,26.17
2023-02-16T17:54:49.179Z,25.23
2023-02-16T17:59:52.968Z,28.80
2023-02-16T18:04:58.140Z,27.10
2023-02-16T18:10:02.087Z,26.70
2023-02-16T18:15:06.199Z,27.87
2023-02-16T18:20:15.812Z,27.35
2023-02-16T18:25:19.749Z,27.50
2023-02-16T18:30:23.905Z,27.75
2023-02-16T18:35:29.103Z,28.87
2023-02-16T18:40:32.913Z,31.30
2023-02-16T18:45:38.371Z,32.22
2023-02-16T18:50:43.510Z,31.58
2023-02-16T18:55:47.222Z,33.70
2023-02-16T19:00:51.130Z,33.00
2023-02-16T19:05:56.250Z,32.35
2023-02-16T19:10:59.990Z,34.00
2023-02-16T19:16:04.183Z,35.72
2023-02-16T19:21:11.698Z,28.42
2023-02-16T19:26:17.296Z,34.83
2023-02-16T19:31:23.069Z,35.75
2023-02-16T19:36:32.028Z,33.95
2023-02-16T19:41:38.511Z,35.47
2023-02-16T19:46:43.237Z,34.15
2023-02-16T19:51:48.798Z,35.97
2023-02-16T19:56:54.103Z,36.40
2023-02-16T20:01:58.978Z,36.33
2023-02-16T20:07:05.077Z,35.70
2023-02-16T20:12:09.110Z,51.90
2023-02-16T20:17:12.896Z,36.58
2023-02-16T20:22:17.967Z,36.42
2023-02-16T20:27:21.731Z,37.28
2023-02-16T20:32:26.500Z,38.10
2023-02-16T20:37:31.546Z,34.15
2023-02-16T20:42:35.394Z,36.05
2023-02-16T20:47:40.275Z,34.55
2023-02-16T20:52:45.449Z,35.17
2023-02-16T20:57:49.205Z,33.97
2023-02-16T21:02:54.220Z,34.22
2023-02-16T21:08:01.761Z,34.60
2023-02-16T21:13:05.577Z,37.03
2023-02-16T21:18:10.522Z,36.80
2023-02-16T21:23:15.607Z,39.55
2023-02-16T21:28:19.455Z,38.53
2023-02-16T21:33:25.335Z,39.42
2023-02-16T21:38:30.396Z,41.90
2023-02-16T21:43:34.146Z,37.22
2023-02-16T21:48:47.155Z,39.67
2023-02-16T21:53:53.265Z,38.63
2023-02-16T21:58:57.671Z,34.83
2023-02-16T22:04:02.276Z,31.83
2023-02-16T22:09:09.596Z,32.78
2023-02-16T22:14:13.729Z,29.50
2023-02-16T22:19:19.376Z,21.37
2023-02-16T22:24:24.498Z,18.83
2023-02-16T22:29:28.209Z,14.93
2023-02-16T22:34:32.090Z,11.65
2023-02-16T22:39:37.181Z,11.70
2023-02-16T22:44:41.329Z,11.35
2023-02-16T22:49:45.114Z,10.85
2023-02-16T22:54:52.624Z,10.38
2023-02-16T22:59:56.351Z,10.63
2023-02-16T23:05:00.529Z,10.70
2023-02-16T23:10:06.567Z,11.65
2023-02-16T23:15:11.183Z,11.32
2023-02-16T23:20:14.952Z,10.32
2023-02-16T23:25:35.608Z,9.80
2023-02-16T23:30:43.357Z,8.38
2023-02-16T23:35:47.123Z,8.50
2023-02-16T23:40:58.165Z,8.57
2023-02-16T23:46:02.989Z,8.32
2023-02-16T23:51:07.643Z,7.53
2023-02-16T23:56:15.423Z,8.07
